createdAt,value
2023-03-11T00:00:32.192Z,2.13
2023-03-11T00:01:35.023Z,2.22
2023-03-11T00:02:37.852Z,1.80
2023-03-11T00:03:40.723Z,2.00
2023-03-11T00:04:44.464Z,1.85
2023-03-11T00:05:47.912Z,1.80
2023-03-11T00:06:50.916Z,1.63
2023-03-11T00:07:54.829Z,2.00
2023-03-11T00:08:57.823Z,2.25
2023-03-11T00:10:00.793Z,2.00
2023-03-11T00:11:05.428Z,1.85
2023-03-11T00:12:08.514Z,1.77
2023-03-11T00:13:13.464Z,2.00
2023-03-11T00:14:16.329Z,2.22
2023-03-11T00:15:19.252Z,2.30
2023-03-11T00:16:22.156Z,1.75
2023-03-11T00:17:24.957Z,1.98
2023-03-11T00:18:30.562Z,2.10
2023-03-11T00:19:33.367Z,2.10
2023-03-11T00:20:41.293Z,2.33
2023-03-11T00:21:44.134Z,2.53
2023-03-11T00:22:47.874Z,1.80
2023-03-11T00:23:50.804Z,1.92
2023-03-11T00:24:53.576Z,1.67
2023-03-11T00:25:56.929Z,1.92
2023-03-11T00:26:59.706Z,1.80
2023-03-11T00:28:02.600Z,2.20
2023-03-11T00:29:05.526Z,2.05
2023-03-11T00:30:11.885Z,2.17
2023-03-11T00:31:14.880Z,2.20
2023-03-11T00:32:17.895Z,2.03
2023-03-11T00:33:20.706Z,1.98
2023-03-11T00:34:23.618Z,1.95
2023-03-11T00:35:32.119Z,2.28
2023-03-11T00:36:35.017Z,2.33
2023-03-11T00:37:37.789Z,1.67
2023-03-11T00:38:40.685Z,1.98
2023-03-11T00:39:45.622Z,1.90
2023-03-11T00:40:49.381Z,2.47
2023-03-11T00:41:52.286Z,1.92
2023-03-11T00:42:55.798Z,2.30
2023-03-11T00:43:58.553Z,2.20
2023-03-11T00:45:01.382Z,1.90
2023-03-11T00:46:06.387Z,2.15
2023-03-11T00:47:11.670Z,1.77
2023-03-11T00:48:15.510Z,1.92
2023-03-11T00:49:18.690Z,1.90
2023-03-11T00:50:30.650Z,2.10
2023-03-11T00:51:34.324Z,1.80
2023-03-11T00:52:37.198Z,1.70
2023-03-11T00:53:40.149Z,1.65
2023-03-11T00:54:43.169Z,2.00
2023-03-11T00:55:46.197Z,2.40
2023-03-11T00:56:49.106Z,1.80
2023-03-11T00:57:58.000Z,1.85
2023-03-11T00:59:03.268Z,1.77
2023-03-11T01:00:11.619Z,1.60
2023-03-11T01:01:17.228Z,2.20
2023-03-11T01:02:20.139Z,2.13
2023-03-11T01:03:23.123Z,2.45
2023-03-11T01:04:26.149Z,1.85
2023-03-11T01:05:31.928Z,2.17
2023-03-11T01:06:44.900Z,1.88
2023-03-11T01:07:48.572Z,1.90
2023-03-11T01:08:51.477Z,2.00
2023-03-11T01:09:54.327Z,1.88
2023-03-11T01:10:57.750Z,1.80
2023-03-11T01:12:00.517Z,1.65
2023-03-11T01:13:05.481Z,1.70
2023-03-11T01:14:09.211Z,1.90
2023-03-11T01:15:23.207Z,2.10
2023-03-11T01:16:26.115Z,1.90
2023-03-11T01:17:29.115Z,1.92
2023-03-11T01:18:32.135Z,1.60
2023-03-11T01:19:36.375Z,1.63
2023-03-11T01:20:39.631Z,1.70
2023-03-11T01:21:43.534Z,2.03
2023-03-11T01:22:46.510Z,1.45
2023-03-11T01:23:49.438Z,1.80
2023-03-11T01:24:52.270Z,2.03
2023-03-11T01:25:55.214Z,2.17
2023-03-11T01:26:58.028Z,1.92
2023-03-11T01:28:00.965Z,2.03
2023-03-11T01:29:05.004Z,1.95
2023-03-11T01:30:08.668Z,2.03
2023-03-11T01:31:11.993Z,1.80
2023-03-11T01:32:15.015Z,1.90
2023-03-11T01:33:19.414Z,1.95
2023-03-11T01:34:22.303Z,1.85
2023-03-11T01:35:27.520Z,1.70
2023-03-11T01:36:30.406Z,1.88
2023-03-11T01:37:33.409Z,1.65
2023-03-11T01:38:36.557Z,1.42
2023-03-11T01:39:39.370Z,2.13
2023-03-11T01:40:51.008Z,1.85
2023-03-11T01:41:56.464Z,2.20
2023-03-11T01:43:03.705Z,2.15
2023-03-11T01:44:07.613Z,2.00
2023-03-11T01:45:51.353Z,1.75
2023-03-11T01:47:00.311Z,1.70
2023-03-11T01:48:09.432Z,1.80
2023-03-11T01:49:13.373Z,1.60
2023-03-11T01:50:16.875Z,2.00
2023-03-11T01:51:43.712Z,2.13
2023-03-11T01:52:48.912Z,1.70
2023-03-11T01:53:54.172Z,1.80
2023-03-11T01:54:57.186Z,1.92
2023-03-11T01:56:01.717Z,1.83
2023-03-11T01:57:12.872Z,1.88
2023-03-11T01:58:22.912Z,1.52
2023-03-11T01:59:31.293Z,1.80
2023-03-11T02:00:36.428Z,1.50
2023-03-11T02:01:50.216Z,2.03
2023-03-11T02:02:55.917Z,2.28
2023-03-11T02:03:59.304Z,1.58
2023-03-11T02:05:03.362Z,1.40
2023-03-11T02:06:14.321Z,1.88
2023-03-11T02:07:17.679Z,1.90
2023-03-11T02:08:22.293Z,1.58
2023-03-11T02:09:27.372Z,2.22
2023-03-11T02:10:31.354Z,1.60
2023-03-11T02:11:34.494Z,1.55
2023-03-11T02:12:38.430Z,1.60
2023-03-11T02:13:43.579Z,1.88
2023-03-11T02:14:50.839Z,1.58
2023-03-11T02:15:53.828Z,1.67
2023-03-11T02:16:58.238Z,1.70
2023-03-11T02:18:05.308Z,1.88
2023-03-11T02:19:21.631Z,1.95
2023-03-11T02:20:48.898Z,1.40
2023-03-11T02:21:52.380Z,1.63
2023-03-11T02:22:57.737Z,1.70
2023-03-11T02:24:20.049Z,2.13
2023-03-11T02:25:31.779Z,1.80
2023-03-11T02:27:08.531Z,1.77
2023-03-11T02:28:13.671Z,1.80
2023-03-11T02:29:17.080Z,1.42
2023-03-11T02:30:22.990Z,1.52
2023-03-11T02:31:26.539Z,1.63
2023-03-11T02:32:30.166Z,1.13
2023-03-11T02:33:36.221Z,2.10
2023-03-11T02:34:40.476Z,1.70
2023-03-11T02:35:43.418Z,1.63
2023-03-11T02:36:46.241Z,1.98
2023-03-11T02:37:53.129Z,1.73
2023-03-11T02:38:56.584Z,1.63
2023-03-11T02:40:24.096Z,1.40
2023-03-11T02:41:34.816Z,1.33
2023-03-11T02:42:37.716Z,1.90
2023-03-11T02:43:45.557Z,1.70
2023-03-11T02:45:08.358Z,1.90
2023-03-11T02:46:12.897Z,1.65
2023-03-11T02:47:17.415Z,1.92
2023-03-11T02:48:21.834Z,1.50
2023-03-11T02:49:25.207Z,1.67
2023-03-11T02:50:29.916Z,1.70
2023-03-11T02:51:33.182Z,1.58
2023-03-11T02:52:37.431Z,1.77
2023-03-11T02:53:48.639Z,2.13
2023-03-11T02:54:51.924Z,1.35
2023-03-11T02:55:55.082Z,1.70
2023-03-11T02:56:58.218Z,1.13
2023-03-11T02:58:03.257Z,2.08
2023-03-11T02:59:06.339Z,1.70
2023-03-11T03:00:15.851Z,1.85
2023-03-11T03:01:25.733Z,1.50
2023-03-11T03:02:29.159Z,2.78
2023-03-11T03:03:32.359Z,1.70
2023-03-11T03:04:35.374Z,1.20
2023-03-11T03:05:38.639Z,1.70
2023-03-11T03:06:41.826Z,1.60
2023-03-11T03:07:45.178Z,1.40
2023-03-11T03:08:48.284Z,1.50
2023-03-11T03:09:51.556Z,1.88
2023-03-11T03:10:54.950Z,1.90
2023-03-11T03:11:57.962Z,1.85
2023-03-11T03:13:01.150Z,1.45
2023-03-11T03:14:04.496Z,1.83
2023-03-11T03:15:08.507Z,1.67
2023-03-11T03:16:11.594Z,1.75
2023-03-11T03:17:17.426Z,1.58
2023-03-11T03:18:23.003Z,1.60
2023-03-11T03:19:26.194Z,1.45
2023-03-11T03:20:30.441Z,1.50
2023-03-11T03:21:36.223Z,1.52
2023-03-11T03:22:43.005Z,2.15
2023-03-11T03:23:48.229Z,1.60
2023-03-11T03:24:52.286Z,1.30
2023-03-11T03:25:55.482Z,1.58
2023-03-11T03:26:58.540Z,1.60
2023-03-11T03:28:01.638Z,1.30
2023-03-11T03:29:06.650Z,1.45
2023-03-11T03:30:10.848Z,1.40
2023-03-11T03:31:14.829Z,1.20
2023-03-11T03:32:19.158Z,1.40
2023-03-11T03:33:22.565Z,1.65
2023-03-11T03:34:25.724Z,1.50
2023-03-11T03:35:29.132Z,1.20
2023-03-11T03:36:41.732Z,2.22
2023-03-11T03:37:52.785Z,1.25
2023-03-11T03:38:58.216Z,1.20
2023-03-11T03:40:10.041Z,1.50
2023-03-11T03:41:16.152Z,1.00
2023-03-11T03:42:21.994Z,1.40
2023-03-11T03:43:25.268Z,1.30
2023-03-11T03:44:29.665Z,1.50
2023-03-11T03:45:40.387Z,1.30
2023-03-11T03:46:43.314Z,1.67
2023-03-11T03:47:46.223Z,1.42
2023-03-11T03:48:49.174Z,1.27
2023-03-11T03:49:52.145Z,1.50
2023-03-11T03:50:55.210Z,1.33
2023-03-11T03:51:58.181Z,1.20
2023-03-11T03:53:06.581Z,1.67
2023-03-11T03:54:09.468Z,1.30
2023-03-11T03:55:12.365Z,1.25
2023-03-11T03:56:17.524Z,1.48
2023-03-11T03:57:20.671Z,1.13
2023-03-11T03:58:25.530Z,1.40
2023-03-11T03:59:28.493Z,1.13
2023-03-11T04:00:34.702Z,1.40
2023-03-11T04:01:38.886Z,1.30
2023-03-11T04:02:42.351Z,1.63
2023-03-11T04:03:54.030Z,1.23
2023-03-11T04:04:57.853Z,1.23
2023-03-11T04:06:24.634Z,1.60
2023-03-11T04:07:36.037Z,1.25
2023-03-11T04:08:40.837Z,1.45
2023-03-11T04:09:45.675Z,1.10
2023-03-11T04:10:58.693Z,1.42
2023-03-11T04:12:02.819Z,1.30
2023-03-11T04:13:10.202Z,0.98
2023-03-11T04:14:51.224Z,1.00
2023-03-11T04:15:55.051Z,1.00
2023-03-11T04:16:58.587Z,1.33
2023-03-11T04:18:02.054Z,1.20
2023-03-11T04:19:06.045Z,1.17
2023-03-11T04:20:10.819Z,1.33
2023-03-11T04:21:13.959Z,1.40
2023-03-11T04:22:16.871Z,1.58
2023-03-11T04:23:19.741Z,1.30
2023-03-11T04:24:26.299Z,1.42
2023-03-11T04:25:29.679Z,1.20
2023-03-11T04:26:32.646Z,1.27
2023-03-11T04:27:38.789Z,1.13
2023-03-11T04:28:42.436Z,1.42
2023-03-11T04:29:45.287Z,1.13
2023-03-11T04:30:48.240Z,1.17
2023-03-11T04:31:51.225Z,1.15
2023-03-11T04:32:54.062Z,1.30
2023-03-11T04:33:57.264Z,1.27
2023-03-11T04:35:00.176Z,1.50
2023-03-11T04:36:08.732Z,1.50
2023-03-11T04:37:13.036Z,1.42
2023-03-11T04:38:15.896Z,1.27
2023-03-11T04:39:18.687Z,1.42
2023-03-11T04:40:22.876Z,1.05
2023-03-11T04:41:25.715Z,1.17
2023-03-11T04:42:28.658Z,1.33
2023-03-11T04:43:32.054Z,1.30
2023-03-11T04:44:36.511Z,1.20
2023-03-11T04:45:41.347Z,1.23
2023-03-11T04:46:44.720Z,1.40
2023-03-11T04:47:49.006Z,1.45
2023-03-11T04:48:52.270Z,1.13
2023-03-11T04:49:56.415Z,1.17
2023-03-11T04:51:00.016Z,1.40
2023-03-11T04:52:05.048Z,1.05
2023-03-11T04:53:08.018Z,1.15
2023-03-11T04:54:10.952Z,1.00
2023-03-11T04:55:15.452Z,1.23
2023-03-11T04:56:18.683Z,1.20
2023-03-11T04:57:21.951Z,1.40
2023-03-11T04:58:25.062Z,1.00
2023-03-11T04:59:28.359Z,1.30
2023-03-11T05:00:31.165Z,1.30
2023-03-11T05:01:40.401Z,1.23
2023-03-11T05:02:44.642Z,1.35
2023-03-11T05:03:48.625Z,1.20
2023-03-11T05:04:52.525Z,1.02
2023-03-11T05:06:00.428Z,1.17
2023-03-11T05:08:06.996Z,1.65
2023-03-11T05:09:10.671Z,1.20
2023-03-11T05:10:22.642Z,1.00
2023-03-11T05:11:29.171Z,1.20
2023-03-11T05:12:32.954Z,1.45
2023-03-11T05:13:35.832Z,1.30
2023-03-11T05:14:39.386Z,1.58
2023-03-11T05:15:42.891Z,1.30
2023-03-11T05:16:46.257Z,1.13
2023-03-11T05:17:49.125Z,1.23
2023-03-11T05:18:51.972Z,1.15
2023-03-11T05:19:54.918Z,1.20
2023-03-11T05:21:01.610Z,1.13
2023-03-11T05:22:09.127Z,1.42
2023-03-11T05:23:12.514Z,1.40
2023-03-11T05:24:15.761Z,0.95
2023-03-11T05:25:18.675Z,1.02
2023-03-11T05:26:21.537Z,1.20
2023-03-11T05:27:24.588Z,1.27
2023-03-11T05:28:30.506Z,1.10
2023-03-11T05:29:33.381Z,0.98
2023-03-11T05:30:36.419Z,1.00
2023-03-11T05:31:39.944Z,1.33
2023-03-11T05:32:42.834Z,1.95
2023-03-11T05:33:45.717Z,1.00
2023-03-11T05:34:50.240Z,0.90
2023-03-11T05:35:53.429Z,0.88
2023-03-11T05:36:56.899Z,1.25
2023-03-11T05:38:00.145Z,1.30
2023-03-11T05:39:05.516Z,1.25
2023-03-11T05:40:12.557Z,1.40
2023-03-11T05:41:15.498Z,1.20
2023-03-11T05:42:21.367Z,1.30
2023-03-11T05:43:27.491Z,1.17
2023-03-11T05:44:31.978Z,1.13
2023-03-11T05:45:35.050Z,1.42
2023-03-11T05:46:38.757Z,1.38
2023-03-11T05:47:43.064Z,1.20
2023-03-11T05:48:48.629Z,1.20
2023-03-11T05:49:52.123Z,1.30
2023-03-11T05:50:56.348Z,1.40
2023-03-11T05:51:59.687Z,1.02
2023-03-11T05:53:06.083Z,1.42
2023-03-11T05:54:15.430Z,1.33
2023-03-11T05:55:22.143Z,1.20
2023-03-11T05:56:25.678Z,1.20
2023-03-11T05:57:30.263Z,1.00
2023-03-11T05:58:33.960Z,1.10
2023-03-11T05:59:38.060Z,1.10
2023-03-11T06:00:41.910Z,0.75
2023-03-11T06:01:45.677Z,1.30
2023-03-11T06:02:48.996Z,1.10
2023-03-11T06:03:54.705Z,1.25
2023-03-11T06:04:58.483Z,1.63
2023-03-11T06:06:01.575Z,1.35
2023-03-11T06:07:05.147Z,0.90
2023-03-11T06:09:15.913Z,1.60
2023-03-11T06:10:20.506Z,1.17
2023-03-11T06:11:27.245Z,1.27
2023-03-11T06:12:30.415Z,1.48
2023-03-11T06:13:56.617Z,1.10
2023-03-11T06:15:01.612Z,1.38
2023-03-11T06:16:05.646Z,1.30
2023-03-11T06:17:08.802Z,1.27
2023-03-11T06:18:12.235Z,1.20
2023-03-11T06:19:15.269Z,1.17
2023-03-11T06:20:23.201Z,1.10
2023-03-11T06:21:27.344Z,1.73
2023-03-11T06:22:30.348Z,1.17
2023-03-11T06:23:33.497Z,1.08
2023-03-11T06:24:37.248Z,1.60
2023-03-11T06:25:41.209Z,1.10
2023-03-11T06:26:44.688Z,1.20
2023-03-11T06:27:52.726Z,1.33
2023-03-11T06:28:57.164Z,1.65
2023-03-11T06:30:00.284Z,1.38
2023-03-11T06:31:14.761Z,1.00
2023-03-11T06:32:17.915Z,1.25
2023-03-11T06:33:21.347Z,1.20
2023-03-11T06:34:24.344Z,1.20
2023-03-11T06:35:28.423Z,1.00
2023-03-11T06:36:32.298Z,2.13
2023-03-11T06:37:37.453Z,1.27
2023-03-11T06:38:40.571Z,1.13
2023-03-11T06:39:43.638Z,1.23
2023-03-11T06:40:51.238Z,1.20
2023-03-11T06:41:54.435Z,1.40
2023-03-11T06:42:57.509Z,1.63
2023-03-11T06:44:02.611Z,1.23
2023-03-11T06:45:06.793Z,1.25
2023-03-11T06:46:18.698Z,1.10
2023-03-11T06:47:21.984Z,1.25
2023-03-11T06:48:26.505Z,1.23
2023-03-11T06:49:29.795Z,1.00
2023-03-11T06:50:32.608Z,1.20
2023-03-11T06:51:37.896Z,1.30
2023-03-11T06:52:41.010Z,1.10
2023-03-11T06:53:44.845Z,0.95
2023-03-11T06:54:47.694Z,1.10
2023-03-11T06:56:23.430Z,1.35
2023-03-11T06:57:34.481Z,1.10
2023-03-11T06:58:42.583Z,1.20
2023-03-11T06:59:47.440Z,1.88
2023-03-11T07:00:53.187Z,1.25
2023-03-11T07:01:56.283Z,1.35
2023-03-11T07:02:59.165Z,1.30
2023-03-11T07:04:02.148Z,1.02
2023-03-11T07:05:06.349Z,1.15
2023-03-11T07:06:17.504Z,1.13
2023-03-11T07:07:21.605Z,1.33
2023-03-11T07:08:25.063Z,1.20
2023-03-11T07:09:29.835Z,1.17
2023-03-11T07:10:32.923Z,1.20
2023-03-11T07:11:35.843Z,1.13
2023-03-11T07:12:44.796Z,1.13
2023-03-11T07:13:48.251Z,0.90
2023-03-11T07:14:55.663Z,1.17
2023-03-11T07:16:19.389Z,1.40
2023-03-11T07:17:22.824Z,1.42
2023-03-11T07:18:27.791Z,1.25
2023-03-11T07:19:30.629Z,1.25
2023-03-11T07:20:33.422Z,1.15
2023-03-11T07:21:36.292Z,1.02
2023-03-11T07:22:39.234Z,1.23
2023-03-11T07:23:42.823Z,1.05
2023-03-11T07:24:47.624Z,1.10
2023-03-11T07:25:52.051Z,1.02
2023-03-11T07:26:54.955Z,1.30
2023-03-11T07:27:57.741Z,1.05
2023-03-11T07:29:00.795Z,1.23
2023-03-11T07:30:04.577Z,1.20
2023-03-11T07:31:19.863Z,0.90
2023-03-11T07:32:22.851Z,0.95
2023-03-11T07:33:25.912Z,0.95
2023-03-11T07:34:28.778Z,1.50
2023-03-11T07:35:31.749Z,1.20
2023-03-11T07:36:34.588Z,1.38
2023-03-11T07:37:37.473Z,1.50
2023-03-11T07:38:41.801Z,1.10
2023-03-11T07:39:45.756Z,1.00
2023-03-11T07:40:57.615Z,1.48
2023-03-11T07:42:00.662Z,1.10
2023-03-11T07:43:10.998Z,1.05
2023-03-11T07:44:15.893Z,1.60
2023-03-11T07:45:18.756Z,1.30
2023-03-11T07:46:23.108Z,1.90
2023-03-11T07:47:26.042Z,1.35
2023-03-11T07:48:28.828Z,1.70
2023-03-11T07:49:31.860Z,1.45
2023-03-11T07:50:34.778Z,2.13
2023-03-11T07:51:39.520Z,1.77
2023-03-11T07:52:42.397Z,1.73
2023-03-11T07:53:47.774Z,1.65
2023-03-11T07:54:50.641Z,2.58
2023-03-11T07:56:00.232Z,2.35
2023-03-11T07:57:04.000Z,1.70
2023-03-11T07:58:06.869Z,2.35
2023-03-11T07:59:09.892Z,2.33
2023-03-11T08:00:13.386Z,2.10
2023-03-11T08:01:18.633Z,3.05
2023-03-11T08:02:21.503Z,2.38
2023-03-11T08:03:25.366Z,2.17
2023-03-11T08:04:28.177Z,2.55
2023-03-11T08:05:34.716Z,3.00
2023-03-11T08:06:38.208Z,2.03
2023-03-11T08:07:41.062Z,2.42
2023-03-11T08:08:44.467Z,4.05
2023-03-11T08:09:47.432Z,3.50
2023-03-11T08:10:50.476Z,2.50
2023-03-11T08:11:53.378Z,3.00
2023-03-11T08:12:56.187Z,2.53
2023-03-11T08:13:59.403Z,2.85
2023-03-11T08:15:02.357Z,2.85
2023-03-11T08:16:07.997Z,2.45
2023-03-11T08:17:11.169Z,2.60
2023-03-11T08:18:13.995Z,2.80
2023-03-11T08:19:16.826Z,2.58
2023-03-11T08:20:19.866Z,3.22
2023-03-11T08:21:25.930Z,3.15
2023-03-11T08:22:29.667Z,2.75
2023-03-11T08:23:32.501Z,2.45
2023-03-11T08:24:36.161Z,3.20
2023-03-11T08:25:40.487Z,3.33
2023-03-11T08:26:43.670Z,2.75
2023-03-11T08:27:46.451Z,2.60
2023-03-11T08:28:50.102Z,2.22
2023-03-11T08:29:55.568Z,3.03
2023-03-11T08:30:58.440Z,3.03
2023-03-11T08:32:01.417Z,2.80
2023-03-11T08:33:05.335Z,2.63
2023-03-11T08:34:10.840Z,2.35
2023-03-11T08:35:13.845Z,2.60
2023-03-11T08:36:17.937Z,2.78
2023-03-11T08:37:22.737Z,2.90
2023-03-11T08:38:26.800Z,2.80
2023-03-11T08:39:29.664Z,3.15
2023-03-11T08:40:32.611Z,2.78
2023-03-11T08:41:35.670Z,3.28
2023-03-11T08:42:38.545Z,2.60
2023-03-11T08:43:42.640Z,2.53
2023-03-11T08:44:45.863Z,3.33
2023-03-11T08:45:48.951Z,2.95
2023-03-11T08:46:52.043Z,2.65
2023-03-11T08:47:55.156Z,3.13
2023-03-11T08:49:01.000Z,3.15
2023-03-11T08:50:07.367Z,2.55
2023-03-11T08:51:13.759Z,2.65
2023-03-11T08:52:16.796Z,2.88
2023-03-11T08:53:19.917Z,2.40
2023-03-11T08:54:22.977Z,2.70
2023-03-11T08:55:28.453Z,2.65
2023-03-11T08:56:31.572Z,2.60
2023-03-11T08:57:34.749Z,2.42
2023-03-11T08:58:38.044Z,2.95
2023-03-11T08:59:41.038Z,2.70
2023-03-11T09:00:44.244Z,3.00
2023-03-11T09:01:47.282Z,3.42
2023-03-11T09:02:50.392Z,2.72
2023-03-11T09:03:53.404Z,3.15
2023-03-11T09:04:56.467Z,3.00
2023-03-11T09:06:00.806Z,2.88
2023-03-11T09:07:03.972Z,3.28
2023-03-11T09:08:07.281Z,2.90
2023-03-11T09:09:14.156Z,2.72
2023-03-11T09:10:17.630Z,2.67
2023-03-11T09:11:22.978Z,2.72
2023-03-11T09:12:26.028Z,2.72
2023-03-11T09:13:29.589Z,3.05
2023-03-11T09:14:32.567Z,2.30
2023-03-11T09:15:36.710Z,3.40
2023-03-11T09:16:39.759Z,2.88
2023-03-11T09:17:42.838Z,2.83
2023-03-11T09:18:46.289Z,2.75
2023-03-11T09:19:49.407Z,2.63
2023-03-11T09:20:52.570Z,2.92
2023-03-11T09:21:56.358Z,2.97
2023-03-11T09:22:59.336Z,2.40
2023-03-11T09:24:04.565Z,2.70
2023-03-11T09:25:08.397Z,3.05
2023-03-11T09:26:12.344Z,3.03
2023-03-11T09:27:15.924Z,2.60
2023-03-11T09:28:19.244Z,2.30
2023-03-11T09:29:22.233Z,3.38
2023-03-11T09:30:25.444Z,2.35
2023-03-11T09:31:28.598Z,2.67
2023-03-11T09:32:31.740Z,2.75
2023-03-11T09:33:40.065Z,2.80
2023-03-11T09:34:43.160Z,2.63
2023-03-11T09:35:46.364Z,2.72
2023-03-11T09:36:49.611Z,3.13
2023-03-11T09:37:52.640Z,2.40
2023-03-11T09:38:55.645Z,3.15
2023-03-11T09:39:58.758Z,2.70
2023-03-11T09:41:17.780Z,2.47
2023-03-11T09:42:35.784Z,2.38
2023-03-11T09:44:07.925Z,2.45
2023-03-11T09:45:18.744Z,2.83
2023-03-11T09:46:49.721Z,2.00
2023-03-11T09:48:11.269Z,2.28
2023-03-11T09:49:39.903Z,2.83
2023-03-11T09:50:53.934Z,2.53
2023-03-11T09:52:32.021Z,2.60
2023-03-11T09:53:59.673Z,2.42
2023-03-11T09:55:05.099Z,2.50
2023-03-11T09:56:11.543Z,2.60
2023-03-11T09:57:25.684Z,2.60
2023-03-11T09:58:40.131Z,2.25
2023-03-11T09:59:44.057Z,2.50
2023-03-11T10:00:47.922Z,1.67
2023-03-11T10:01:51.977Z,2.30
2023-03-11T10:02:55.764Z,2.67
2023-03-11T10:04:05.249Z,2.53
2023-03-11T10:05:17.366Z,2.35
2023-03-11T10:06:30.587Z,2.53
2023-03-11T10:09:12.330Z,2.40
2023-03-11T10:10:17.789Z,2.28
2023-03-11T10:11:50.591Z,1.92
2023-03-11T10:13:00.123Z,2.30
2023-03-11T10:14:19.479Z,2.38
2023-03-11T10:15:48.513Z,2.45
2023-03-11T10:17:08.341Z,2.03
2023-03-11T10:18:29.688Z,2.45
2023-03-11T10:19:44.258Z,2.25
2023-03-11T10:20:49.731Z,2.30
2023-03-11T10:22:00.844Z,2.47
2023-03-11T10:23:45.701Z,2.22
2023-03-11T10:25:00.943Z,2.80
2023-03-11T10:26:20.689Z,2.08
2023-03-11T10:27:33.122Z,2.38
2023-03-11T10:29:17.278Z,2.22
2023-03-11T10:30:29.896Z,2.42
2023-03-11T10:31:42.384Z,1.55
2023-03-11T10:33:13.664Z,2.13
2023-03-11T10:34:16.460Z,2.40
2023-03-11T10:35:22.687Z,2.10
2023-03-11T10:36:34.526Z,1.95
2023-03-11T10:37:49.698Z,2.28
2023-03-11T10:38:55.404Z,2.50
2023-03-11T10:40:24.249Z,2.35
2023-03-11T10:41:51.260Z,2.38
2023-03-11T10:42:56.651Z,2.35
2023-03-11T10:44:13.183Z,2.33
2023-03-11T10:45:16.661Z,1.83
2023-03-11T10:46:24.000Z,2.53
2023-03-11T10:48:29.885Z,2.22
2023-03-11T10:49:33.131Z,2.33
2023-03-11T10:50:36.827Z,2.60
2023-03-11T10:51:41.466Z,2.40
2023-03-11T10:53:05.011Z,2.55
2023-03-11T10:54:08.171Z,2.28
2023-03-11T10:55:20.188Z,2.65
2023-03-11T10:56:35.329Z,2.30
2023-03-11T10:57:39.196Z,2.50
2023-03-11T10:58:50.005Z,2.47
2023-03-11T10:59:57.690Z,2.10
2023-03-11T11:01:16.879Z,2.40
2023-03-11T11:03:29.996Z,2.35
2023-03-11T11:04:40.062Z,2.15
2023-03-11T11:05:43.339Z,2.97
2023-03-11T11:06:46.396Z,2.17
2023-03-11T11:07:53.302Z,2.53
2023-03-11T11:09:12.537Z,2.17
2023-03-11T11:10:18.416Z,2.13
2023-03-11T11:11:25.416Z,2.13
2023-03-11T11:12:28.445Z,1.88
2023-03-11T11:13:34.947Z,2.22
2023-03-11T11:14:52.970Z,1.98
2023-03-11T11:15:57.708Z,1.83
2023-03-11T11:17:00.775Z,2.70
2023-03-11T11:18:15.576Z,2.25
2023-03-11T11:19:20.092Z,2.60
2023-03-11T11:20:25.384Z,2.55
2023-03-11T11:21:32.726Z,2.10
2023-03-11T11:23:44.479Z,1.92
2023-03-11T11:24:51.461Z,2.17
2023-03-11T11:26:04.955Z,1.92
2023-03-11T11:27:24.654Z,2.30
2023-03-11T11:28:28.913Z,2.58
2023-03-11T11:29:32.275Z,2.20
2023-03-11T11:30:35.366Z,2.10
2023-03-11T11:31:47.601Z,2.35
2023-03-11T11:32:54.013Z,2.40
2023-03-11T11:33:57.809Z,2.00
2023-03-11T11:35:21.675Z,2.13
2023-03-11T11:36:34.515Z,2.28
2023-03-11T11:37:42.136Z,2.22
2023-03-11T11:38:45.275Z,2.60
2023-03-11T11:39:53.292Z,2.42
2023-03-11T11:40:59.998Z,2.42
2023-03-11T11:42:04.066Z,1.85
2023-03-11T11:43:16.866Z,2.30
2023-03-11T11:44:22.700Z,2.35
2023-03-11T11:45:39.315Z,2.53
2023-03-11T11:46:49.639Z,2.30
2023-03-11T11:48:00.687Z,2.20
2023-03-11T11:49:30.597Z,2.22
2023-03-11T11:50:37.218Z,1.85
2023-03-11T11:51:45.660Z,2.13
2023-03-11T11:52:56.794Z,2.17
2023-03-11T11:54:22.265Z,2.55
2023-03-11T11:55:28.579Z,2.55
2023-03-11T11:56:31.614Z,2.28
2023-03-11T11:57:34.801Z,2.20
2023-03-11T11:58:39.155Z,2.28
2023-03-11T11:59:43.401Z,2.40
2023-03-11T12:00:53.818Z,2.47
2023-03-11T12:02:20.879Z,2.55
2023-03-11T12:03:45.901Z,2.38
2023-03-11T12:06:06.613Z,2.25
2023-03-11T12:07:19.170Z,2.40
2023-03-11T12:08:37.495Z,1.95
2023-03-11T12:10:22.161Z,2.17
2023-03-11T12:11:57.510Z,2.28
2023-03-11T12:13:37.845Z,1.90
2023-03-11T12:14:54.142Z,2.20
2023-03-11T12:16:19.654Z,2.22
2023-03-11T12:17:25.110Z,2.47
2023-03-11T12:18:40.009Z,2.47
2023-03-11T12:20:13.216Z,1.90
2023-03-11T12:21:32.788Z,2.13
2023-03-11T12:22:54.298Z,2.10
2023-03-11T12:24:20.801Z,2.40
2023-03-11T12:25:29.816Z,2.10
2023-03-11T12:26:38.419Z,2.47
2023-03-11T12:27:47.359Z,2.20
2023-03-11T12:29:15.715Z,2.45
2023-03-11T12:30:28.107Z,1.92
2023-03-11T12:31:40.355Z,2.10
2023-03-11T12:33:23.059Z,2.50
2023-03-11T12:34:26.394Z,2.17
2023-03-11T12:35:33.134Z,2.10
2023-03-11T12:36:44.838Z,2.00
2023-03-11T12:38:01.964Z,2.30
2023-03-11T12:39:08.076Z,2.15
2023-03-11T12:40:44.957Z,2.20
2023-03-11T12:41:47.995Z,2.33
2023-03-11T12:42:51.053Z,2.58
2023-03-11T12:43:54.112Z,2.17
2023-03-11T12:45:40.551Z,1.90
2023-03-11T12:46:58.397Z,2.60
2023-03-11T12:48:30.085Z,2.55
2023-03-11T12:49:36.078Z,2.08
2023-03-11T12:50:41.552Z,2.10
2023-03-11T12:52:05.633Z,2.53
2023-03-11T12:53:17.294Z,2.72
2023-03-11T12:54:33.183Z,2.30
2023-03-11T12:55:38.480Z,2.30
2023-03-11T12:56:45.094Z,2.13
2023-03-11T12:57:47.834Z,2.80
2023-03-11T12:59:03.686Z,2.45
2023-03-11T13:00:27.645Z,2.55
2023-03-11T13:01:37.493Z,1.92
2023-03-11T13:02:54.087Z,2.50
2023-03-11T13:04:25.692Z,2.60
2023-03-11T13:05:47.241Z,2.55
2023-03-11T13:07:19.430Z,2.28
2023-03-11T13:08:48.809Z,2.60
2023-03-11T13:10:21.483Z,2.60
2023-03-11T13:11:33.193Z,2.60
2023-03-11T13:12:43.449Z,2.80
2023-03-11T13:13:46.474Z,3.45
2023-03-11T13:14:49.337Z,2.47
2023-03-11T13:15:53.428Z,2.63
2023-03-11T13:18:29.306Z,2.42
2023-03-11T13:19:34.766Z,2.88
2023-03-11T13:20:41.749Z,2.78
2023-03-11T13:21:44.692Z,2.67
2023-03-11T13:22:52.763Z,2.75
2023-03-11T13:24:23.115Z,2.55
2023-03-11T13:25:30.193Z,2.80
2023-03-11T13:26:41.481Z,2.95
2023-03-11T13:27:49.580Z,2.65
2023-03-11T13:29:22.535Z,2.67
2023-03-11T13:30:32.800Z,2.25
2023-03-11T13:31:50.543Z,2.17
2023-03-11T13:33:07.978Z,2.65
2023-03-11T13:34:22.272Z,2.35
2023-03-11T13:35:46.299Z,2.50
2023-03-11T13:37:00.590Z,2.13
2023-03-11T13:38:06.051Z,2.33
2023-03-11T13:39:30.162Z,2.80
2023-03-11T13:40:42.271Z,2.55
2023-03-11T13:41:46.223Z,2.30
2023-03-11T13:42:56.086Z,2.80
2023-03-11T13:44:16.661Z,2.30
2023-03-11T13:45:29.475Z,2.70
2023-03-11T13:46:41.368Z,2.25
2023-03-11T13:47:49.802Z,1.85
2023-03-11T13:49:01.242Z,2.78
2023-03-11T13:50:14.252Z,2.85
2023-03-11T13:51:23.032Z,2.30
2023-03-11T13:52:35.835Z,2.25
2023-03-11T13:53:45.371Z,2.65
2023-03-11T13:55:01.942Z,2.53
2023-03-11T13:56:06.241Z,2.50
2023-03-11T13:57:37.129Z,2.28
2023-03-11T13:58:39.954Z,2.58
2023-03-11T13:59:42.717Z,1.98
2023-03-11T14:00:51.454Z,2.33
2023-03-11T14:02:14.179Z,2.42
2023-03-11T14:03:22.307Z,2.38
2023-03-11T14:04:31.681Z,1.92
2023-03-11T14:05:36.930Z,2.45
2023-03-11T14:06:39.809Z,3.35
2023-03-11T14:07:42.731Z,2.50
2023-03-11T14:08:57.865Z,2.30
2023-03-11T14:10:30.835Z,2.42
2023-03-11T14:11:33.620Z,2.20
2023-03-11T14:12:36.702Z,2.47
2023-03-11T14:13:48.185Z,3.10
2023-03-11T14:15:02.738Z,2.35
2023-03-11T14:16:16.124Z,2.53
2023-03-11T14:17:20.848Z,2.30
2023-03-11T14:18:32.360Z,2.47
2023-03-11T14:19:35.177Z,2.83
2023-03-11T14:20:39.097Z,2.42
2023-03-11T14:21:47.293Z,2.60
2023-03-11T14:22:53.386Z,2.30
2023-03-11T14:23:56.775Z,2.22
2023-03-11T14:25:06.343Z,2.42
2023-03-11T14:26:14.144Z,2.30
2023-03-11T14:27:17.772Z,2.45
2023-03-11T14:28:21.911Z,3.08
2023-03-11T14:29:30.862Z,2.92
2023-03-11T14:30:34.900Z,3.45
2023-03-11T14:31:40.122Z,2.45
2023-03-11T14:32:43.021Z,2.47
2023-03-11T14:33:55.739Z,2.67
2023-03-11T14:34:59.401Z,2.63
2023-03-11T14:36:07.310Z,2.78
2023-03-11T14:37:39.250Z,3.10
2023-03-11T14:38:44.653Z,2.95
2023-03-11T14:39:49.260Z,3.22
2023-03-11T14:41:05.580Z,2.97
2023-03-11T14:42:21.976Z,3.33
2023-03-11T14:43:25.909Z,3.03
2023-03-11T14:44:31.277Z,2.60
2023-03-11T14:45:37.902Z,3.35
2023-03-11T14:46:43.367Z,3.20
2023-03-11T14:47:55.288Z,3.40
2023-03-11T14:49:01.131Z,2.95
2023-03-11T14:50:12.261Z,3.67
2023-03-11T14:51:19.910Z,3.22
2023-03-11T14:52:54.812Z,3.83
2023-03-11T14:54:19.424Z,2.95
2023-03-11T14:55:28.477Z,2.63
2023-03-11T14:56:33.895Z,3.30
2023-03-11T14:57:39.130Z,3.42
2023-03-11T14:59:05.157Z,2.97
2023-03-11T15:00:22.737Z,3.72
2023-03-11T15:01:36.778Z,3.30
2023-03-11T15:03:14.272Z,3.70
2023-03-11T15:04:33.665Z,3.60
2023-03-11T15:05:42.949Z,2.85
2023-03-11T15:06:46.911Z,3.35
2023-03-11T15:07:51.685Z,3.50
2023-03-11T15:09:17.395Z,3.30
2023-03-11T15:10:20.367Z,3.33